Time;durP1;ratioP1;P1;durP2;ratioP2;P2;SDS_P1;SDS_P2;PMS_P1;PMS_P2;Temp;Humidity;BMP_temperature;BMP_pressure;BME280_temperature;BME280_humidity;BME280_pressure;Samples;Min_cycle;Max_cycle;Signal;HPM_P1;HPM_P2
2023/05/13 00:01:37;;;;;;;6.85;3.42;;;12.60;28.20;;;;;;5109482;28;20104;-59
2023/05/13 00:04:05;;;;;;;5.53;3.83;;;12.60;28.90;;;;;;5089329;28;20092;-59
2023/05/13 00:06:31;;;;;;;6.22;3.60;;;12.60;28.40;;;;;;5106791;28;20012;-59
2023/05/13 00:08:57;;;;;;;5.10;4.20;;;12.60;29.20;;;;;;5090019;28;20495;-58
2023/05/13 00:11:23;;;;;;;7.57;3.50;;;12.50;28.80;;;;;;5101254;28;20133;-58
2023/05/13 00:13:49;;;;;;;6.03;3.50;;;12.50;28.90;;;;;;5089182;28;20111;-59
2023/05/13 00:16:14;;;;;;;6.78;4.53;;;12.60;29.60;;;;;;5106397;28;20128;-60
2023/05/13 00:18:40;;;;;;;5.95;3.53;;;12.50;29.80;;;;;;5109232;28;20685;-61
2023/05/13 00:21:06;;;;;;;7.00;4.20;;;12.50;29.70;;;;;;5090633;28;20031;-58
2023/05/13 00:23:31;;;;;;;7.25;3.45;;;12.50;30.10;;;;;;5108592;28;20067;-58
2023/05/13 00:25:57;;;;;;;8.45;3.53;;;12.50;29.40;;;;;;5098713;28;20125;-58
2023/05/13 00:28:23;;;;;;;6.95;3.58;;;12.60;30.20;;;;;;5112578;28;20342;-59
2023/05/13 00:30:48;;;;;;;10.23;3.78;;;12.50;30.10;;;;;;5092963;28;20032;-59
2023/05/13 00:33:14;;;;;;;7.15;3.90;;;12.60;29.70;;;;;;5113428;28;20024;-59
2023/05/13 00:35:40;;;;;;;9.23;4.45;;;12.60;30.20;;;;;;5091498;28;20033;-58
2023/05/13 00:38:06;;;;;;;8.73;4.45;;;12.50;30.10;;;;;;5113323;28;20505;-60
2023/05/13 00:40:35;;;;;;;5.47;3.78;;;12.50;30.90;;;;;;5093242;28;20050;-59
2023/05/13 00:43:01;;;;;;;6.05;3.50;;;12.50;30.40;;;;;;5091209;28;20051;-60
2023/05/13 00:45:26;;;;;;;7.28;3.38;;;12.60;30.50;;;;;;5112586;28;20070;-60
2023/05/13 00:47:52;;;;;;;8.30;4.40;;;12.50;30.40;;;;;;5091440;28;20028;-60
2023/05/13 00:50:18;;;;;;;8.00;3.70;;;12.50;31.00;;;;;;5112406;28;20103;-60
2023/05/13 00:52:44;;;;;;;9.10;3.72;;;12.50;31.00;;;;;;5091361;28;20027;-59
2023/05/13 00:55:10;;;;;;;6.68;4.47;;;12.50;30.90;;;;;;5112177;28;20448;-60
2023/05/13 00:57:36;;;;;;;6.20;4.15;;;12.50;31.60;;;;;;5091184;28;20028;-59
2023/05/13 01:00:07;;;;;;;5.85;3.60;;;12.50;31.40;;;;;;5112094;28;20031;-58
2023/05/13 01:02:50;;;;;;;7.18;4.32;;;12.50;31.20;;;;;;5086425;28;20031;-59
2023/05/13 01:05:40;;;;;;;6.45;3.90;;;12.40;31.60;;;;;;5084188;28;20028;-59
2023/05/13 01:09:00;;;;;;;5.95;3.80;;;12.40;31.70;;;;;;5072062;28;20029;-60
2023/05/13 01:11:33;;;;;;;7.53;3.70;;;12.30;32.90;;;;;;4994586;28;20109;-59
2023/05/13 01:14:05;;;;;;;4.07;3.58;;;12.30;32.60;;;;;;5058045;28;20501;-59
2023/05/13 01:17:03;;;;;;;7.65;3.70;;;12.20;32.40;;;;;;5084643;28;20016;-59
2023/05/13 01:19:56;;;;;;;8.18;4.05;;;12.20;33.90;;;;;;5109267;28;20596;-59
2023/05/13 01:22:22;;;;;;;9.65;4.10;;;12.10;34.40;;;;;;5083233;28;20043;-58
2023/05/13 01:24:49;;;;;;;5.35;3.80;;;12.00;34.60;;;;;;5111219;28;20036;-59
2023/05/13 01:27:15;;;;;;;7.60;3.65;;;12.00;34.90;;;;;;5085372;28;20027;-58
2023/05/13 01:29:40;;;;;;;6.93;4.00;;;11.90;34.20;;;;;;5112311;28;20042;-58
2023/05/13 01:32:08;;;;;;;6.90;3.70;;;11.90;34.50;;;;;;5093450;28;20028;-60
2023/05/13 01:34:34;;;;;;;10.65;3.70;;;11.90;34.80;;;;;;5112339;27;20047;-58
2023/05/13 01:37:00;;;;;;;5.55;3.55;;;11.90;34.80;;;;;;5091210;28;20085;-59
2023/05/13 01:39:27;;;;;;;7.47;3.47;;;11.80;36.30;;;;;;5111970;28;20024;-60
2023/05/13 01:41:52;;;;;;;10.38;3.80;;;11.70;36.30;;;;;;5089967;28;20016;-58
2023/05/13 01:44:18;;;;;;;7.28;2.95;;;11.70;36.30;;;;;;5091470;28;20132;-60
2023/05/13 01:46:44;;;;;;;7.80;3.00;;;11.60;36.10;;;;;;5109908;28;20059;-59
2023/05/13 01:49:09;;;;;;;6.55;3.35;;;11.60;37.60;;;;;;5089969;28;20031;-60
2023/05/13 01:51:36;;;;;;;5.03;3.30;;;11.60;37.20;;;;;;5110993;28;20027;-59
2023/05/13 01:54:02;;;;;;;7.50;3.53;;;11.50;37.50;;;;;;5089992;28;20106;-59
2023/05/13 01:56:28;;;;;;;7.32;3.75;;;11.50;38.00;;;;;;5111035;28;20027;-59
2023/05/13 01:58:53;;;;;;;5.85;3.42;;;11.40;38.40;;;;;;5089879;28;20547;-59
2023/05/13 02:01:19;;;;;;;10.63;3.53;;;11.40;38.70;;;;;;5110857;28;20076;-59
2023/05/13 02:03:44;;;;;;;6.85;3.47;;;11.30;40.30;;;;;;5089918;28;20495;-59
2023/05/13 02:06:10;;;;;;;6.63;3.40;;;11.30;40.40;;;;;;5108204;28;20020;-60
2023/05/13 02:08:35;;;;;;;7.30;3.70;;;11.20;42.40;;;;;;5089859;28;20028;-60
2023/05/13 02:11:01;;;;;;;7.68;4.43;;;11.10;42.00;;;;;;5110669;28;20066;-60
2023/05/13 02:13:26;;;;;;;7.57;3.22;;;11.00;43.20;;;;;;5089916;28;20031;-60
2023/05/13 02:15:55;;;;;;;5.00;3.30;;;11.00;43.00;;;;;;5110537;28;20042;-60
2023/05/13 02:18:21;;;;;;;6.10;3.83;;;11.00;44.10;;;;;;5088269;28;20608;-61
2023/05/13 02:20:46;;;;;;;7.55;3.83;;;10.90;46.40;;;;;;5110475;28;20113;-60
2023/05/13 02:23:13;;;;;;;9.15;4.50;;;10.90;47.70;;;;;;5088037;28;20407;-60
2023/05/13 02:25:42;;;;;;;9.00;4.10;;;10.80;46.80;;;;;;5103047;28;20036;-60
2023/05/13 02:28:08;;;;;;;8.02;4.10;;;10.70;47.60;;;;;;5100284;28;20036;-58
2023/05/13 02:30:33;;;;;;;7.25;4.07;;;10.70;50.40;;;;;;5091226;28;20035;-59
2023/05/13 02:33:00;;;;;;;14.82;4.13;;;10.70;48.70;;;;;;5108289;28;20574;-59
2023/05/13 02:35:28;;;;;;;9.57;4.32;;;10.70;48.60;;;;;;5089520;28;20118;-60
2023/05/13 02:37:55;;;;;;;6.28;4.03;;;10.70;50.90;;;;;;5108649;28;20024;-59
2023/05/13 02:40:20;;;;;;;6.97;4.38;;;10.70;50.00;;;;;;5090726;28;20059;-61
2023/05/13 02:42:46;;;;;;;8.35;4.18;;;10.70;50.70;;;;;;5107853;28;20052;-60
2023/05/13 02:45:11;;;;;;;8.18;3.70;;;10.70;49.60;;;;;;5090687;28;20131;-60
2023/05/13 02:47:38;;;;;;;6.80;3.80;;;10.70;50.40;;;;;;5107588;28;20513;-59
2023/05/13 02:50:06;;;;;;;10.48;4.13;;;10.70;51.20;;;;;;5110694;28;20023;-60
2023/05/13 02:52:34;;;;;;;6.95;4.07;;;10.60;51.70;;;;;;5088221;28;20052;-60
2023/05/13 02:55:00;;;;;;;15.20;4.65;;;10.60;51.90;;;;;;5090254;28;20054;-59
2023/05/13 02:57:26;;;;;;;7.85;3.90;;;10.70;51.30;;;;;;5107946;28;20431;-60
2023/05/13 02:59:52;;;;;;;9.10;4.13;;;10.60;52.30;;;;;;5109339;28;20058;-60
2023/05/13 03:02:17;;;;;;;6.75;4.05;;;10.70;53.70;;;;;;5093407;28;20110;-60
2023/05/13 03:04:43;;;;;;;9.15;4.03;;;10.70;54.20;;;;;;5107953;28;20055;-58
2023/05/13 03:07:08;;;;;;;11.10;4.35;;;10.70;54.10;;;;;;5085071;28;20061;-61
2023/05/13 03:09:34;;;;;;;9.23;4.40;;;10.70;52.70;;;;;;5110442;28;20501;-59
2023/05/13 03:12:00;;;;;;;6.78;4.07;;;10.70;52.60;;;;;;5090639;28;20076;-59
2023/05/13 03:14:25;;;;;;;6.43;4.30;;;10.70;52.90;;;;;;5109031;28;20115;-60
2023/05/13 03:16:51;;;;;;;9.95;4.45;;;10.80;52.60;;;;;;5089550;28;20028;-59
2023/05/13 03:19:16;;;;;;;8.90;4.55;;;10.80;53.50;;;;;;5110159;28;20453;-60
2023/05/13 03:21:42;;;;;;;9.13;4.82;;;10.80;53.10;;;;;;5090384;28;20035;-59
2023/05/13 03:24:07;;;;;;;6.97;3.75;;;10.80;52.30;;;;;;5087824;28;20087;-59
2023/05/13 03:26:33;;;;;;;6.72;4.32;;;10.80;52.10;;;;;;5109199;28;20045;-59
2023/05/13 03:28:58;;;;;;;9.60;4.43;;;10.80;53.00;;;;;;5088405;28;20032;-60
2023/05/13 03:31:24;;;;;;;7.97;4.75;;;10.80;53.20;;;;;;5109266;28;20516;-59
2023/05/13 03:33:49;;;;;;;7.13;4.13;;;10.70;53.50;;;;;;5088263;28;20028;-60
2023/05/13 03:36:15;;;;;;;10.45;4.85;;;10.70;53.70;;;;;;5109053;28;20039;-60
2023/05/13 03:38:40;;;;;;;8.98;4.18;;;10.70;55.00;;;;;;5088231;28;20038;-60
2023/05/13 03:41:06;;;;;;;6.47;3.95;;;10.60;55.00;;;;;;5109066;28;20295;-60
2023/05/13 03:43:31;;;;;;;12.15;4.63;;;10.60;54.50;;;;;;5088021;28;20035;-59
2023/05/13 03:45:57;;;;;;;14.98;5.10;;;10.60;54.80;;;;;;5109037;28;20028;-58
2023/05/13 03:48:22;;;;;;;7.13;5.15;;;10.60;55.70;;;;;;5088086;28;20035;-59
2023/05/13 03:50:48;;;;;;;13.30;5.15;;;10.70;55.90;;;;;;5108964;28;20056;-60
2023/05/13 03:53:14;;;;;;;14.80;5.32;;;10.70;55.80;;;;;;5088032;28;20039;-59
2023/05/13 03:55:40;;;;;;;6.10;4.40;;;10.70;55.90;;;;;;5109073;28;20032;-59
2023/05/13 03:58:13;;;;;;;9.77;4.70;;;10.70;55.40;;;;;;5087607;28;20035;-60
2023/05/13 04:00:39;;;;;;;10.82;4.78;;;10.80;55.50;;;;;;5107753;28;20510;-59
2023/05/13 04:03:05;;;;;;;6.55;3.92;;;10.80;54.80;;;;;;5087947;28;20046;-60
2023/05/13 04:05:31;;;;;;;8.25;4.15;;;11.00;54.80;;;;;;5097016;28;20028;-58
2023/05/13 04:07:56;;;;;;;8.25;4.65;;;11.40;53.20;;;;;;5096712;28;20507;-59
2023/05/13 04:10:22;;;;;;;6.28;4.18;;;11.80;50.70;;;;;;5108816;28;20032;-61
2023/05/13 04:12:47;;;;;;;6.10;4.03;;;12.50;47.70;;;;;;5096631;28;20027;-60
2023/05/13 04:15:13;;;;;;;8.85;4.22;;;13.20;45.60;;;;;;5089600;28;20038;-55
2023/05/13 04:17:38;;;;;;;4.15;3.17;;;13.70;43.00;;;;;;5106881;28;20016;-60
2023/05/13 04:20:04;;;;;;;9.60;4.53;;;14.40;40.50;;;;;;5109357;28;20024;-60
2023/05/13 04:22:30;;;;;;;7.38;3.88;;;14.60;37.70;;;;;;5094209;28;20107;-58
2023/05/13 04:24:56;;;;;;;5.32;3.83;;;14.50;37.00;;;;;;5107918;28;20119;-59
2023/05/13 04:27:22;;;;;;;6.15;3.75;;;14.40;37.80;;;;;;5092388;28;20026;-59
2023/05/13 04:29:49;;;;;;;8.32;4.20;;;14.50;36.20;;;;;;5109434;28;20020;-63
2023/05/13 04:32:20;;;;;;;4.82;3.53;;;14.50;35.70;;;;;;5087394;28;20028;-58
2023/05/13 04:34:45;;;;;;;5.32;3.70;;;14.20;36.20;;;;;;5089122;28;20024;-59
2023/05/13 04:37:11;;;;;;;5.85;3.60;;;14.00;36.60;;;;;;5102817;28;20028;-58
2023/05/13 04:39:36;;;;;;;6.00;3.95;;;13.90;37.00;;;;;;5089047;28;20060;-59
2023/05/13 04:42:02;;;;;;;6.07;3.65;;;14.60;35.90;;;;;;5106465;28;20102;-59
2023/05/13 04:44:27;;;;;;;6.22;3.53;;;15.40;34.60;;;;;;5092776;28;20492;-59
2023/05/13 04:46:53;;;;;;;4.25;3.05;;;16.30;31.90;;;;;;5068801;28;20480;-59
2023/05/13 04:49:18;;;;;;;6.80;3.85;;;17.10;30.60;;;;;;5105623;28;20106;-60
2023/05/13 04:51:44;;;;;;;5.75;3.67;;;17.60;28.70;;;;;;5109287;28;20031;-59
2023/05/13 04:54:09;;;;;;;5.45;3.22;;;18.30;26.60;;;;;;5091690;28;20024;-59
2023/05/13 04:56:35;;;;;;;5.28;3.40;;;18.80;25.10;;;;;;5109323;28;20032;-60
2023/05/13 04:59:01;;;;;;;6.57;3.83;;;19.30;19.20;;;;;;5090276;28;20036;-59
2023/05/13 05:01:26;;;;;;;6.20;3.78;;;19.70;22.30;;;;;;5109261;28;20032;-59
2023/05/13 05:03:52;;;;;;;7.07;3.65;;;20.00;21.00;;;;;;5087163;28;20028;-59
2023/05/13 05:06:17;;;;;;;6.13;3.83;;;20.80;16.80;;;;;;5088515;28;20491;-59
2023/05/13 05:08:43;;;;;;;5.20;3.70;;;20.90;17.60;;;;;;5106673;28;20030;-59
2023/05/13 05:11:09;;;;;;;6.32;3.45;;;21.10;16.00;;;;;;5094113;28;20031;-59
2023/05/13 05:13:35;;;;;;;8.43;3.60;;;21.50;16.70;;;;;;5111705;28;20059;-59
2023/05/13 05:16:00;;;;;;;10.43;4.03;;;21.80;15.40;;;;;;5091018;28;20097;-60
2023/05/13 05:18:26;;;;;;;4.80;2.97;;;22.00;11.10;;;;;;5111789;28;20608;-59
2023/05/13 05:20:51;;;;;;;4.65;3.47;;;22.30;10.90;;;;;;5090944;28;20099;-59
2023/05/13 05:23:16;;;;;;;5.43;3.50;;;22.80;13.30;;;;;;5111641;28;20527;-59
2023/05/13 05:25:42;;;;;;;5.25;3.17;;;22.80;11.10;;;;;;5089005;28;20055;-59
2023/05/13 05:28:08;;;;;;;4.30;3.33;;;23.30;11.70;;;;;;5111498;28;20437;-59
2023/05/13 05:30:38;;;;;;;5.32;3.58;;;23.80;6.60;;;;;;5101118;28;20019;-58
2023/05/13 05:33:05;;;;;;;6.03;3.50;;;23.80;6.30;;;;;;5071627;28;20025;-59
2023/05/13 05:35:32;;;;;;;7.60;3.63;;;23.80;7.70;;;;;;5109171;28;20039;-59
2023/05/13 05:37:58;;;;;;;6.53;3.33;;;23.80;8.30;;;;;;5091876;28;20032;-58
2023/05/13 05:40:23;;;;;;;5.65;3.55;;;24.10;8.50;;;;;;5109203;28;20047;-59
2023/05/13 05:42:49;;;;;;;8.68;3.80;;;24.60;6.30;;;;;;5092331;28;20036;-59
2023/05/13 05:45:14;;;;;;;4.20;3.40;;;24.90;7.20;;;;;;5109255;28;20135;-59
2023/05/13 05:47:40;;;;;;;3.88;3.20;;;25.30;4.60;;;;;;5091954;28;20039;-59
2023/05/13 05:50:06;;;;;;;6.50;3.53;;;25.60;5.20;;;;;;5095958;28;20030;-58
2023/05/13 05:52:31;;;;;;;7.90;3.58;;;25.80;4.00;;;;;;5111901;28;20084;-59
2023/05/13 05:54:57;;;;;;;5.75;3.65;;;25.40;3.70;;;;;;5095864;28;20469;-59
2023/05/13 05:57:22;;;;;;;6.43;3.97;;;25.50;3.60;;;;;;5112027;28;20480;-59
2023/05/13 05:59:48;;;;;;;4.38;3.25;;;25.40;2.60;;;;;;5094716;28;20494;-59
2023/05/13 06:02:13;;;;;;;7.88;3.70;;;25.40;2.20;;;;;;5111663;28;20033;-60
2023/05/13 06:04:40;;;;;;;4.82;3.50;;;25.60;4.00;;;;;;5092626;28;20096;-56
2023/05/13 06:07:06;;;;;;;6.90;4.05;;;26.10;2.80;;;;;;5105719;28;20020;-59
2023/05/13 06:09:31;;;;;;;5.53;3.20;;;26.40;1.40;;;;;;5091915;28;20169;-59
2023/05/13 06:11:57;;;;;;;6.90;3.67;;;26.20;2.00;;;;;;5111286;28;20439;-59
2023/05/13 06:14:22;;;;;;;5.43;3.63;;;26.80;1.30;;;;;;5090323;28;20035;-59
2023/05/13 06:16:48;;;;;;;4.60;3.35;;;26.50;1.30;;;;;;5111373;28;20620;-58
2023/05/13 06:19:13;;;;;;;5.65;3.22;;;27.20;1.70;;;;;;5091365;28;20047;-59
2023/05/13 06:21:38;;;;;;;5.97;3.08;;;28.20;1.00;;;;;;5091422;28;20158;-59
2023/05/13 06:24:04;;;;;;;3.92;3.15;;;28.50;1.00;;;;;;5069367;28;20032;-60
2023/05/13 06:26:30;;;;;;;4.60;3.22;;;28.70;1.00;;;;;;5107637;28;20050;-59
2023/05/13 06:28:56;;;;;;;3.10;2.75;;;29.10;1.00;;;;;;5111305;28;20024;-59
2023/05/13 06:31:21;;;;;;;4.82;3.15;;;29.70;1.00;;;;;;5092635;28;20057;-58
2023/05/13 06:33:47;;;;;;;4.15;2.70;;;29.20;1.00;;;;;;5109212;28;20061;-60
2023/05/13 06:36:13;;;;;;;4.38;3.20;;;28.80;1.00;;;;;;5091167;28;20437;-60
2023/05/13 06:38:39;;;;;;;5.70;3.47;;;28.70;1.00;;;;;;5089370;28;20511;-61
2023/05/13 06:41:05;;;;;;;5.55;3.30;;;28.70;1.00;;;;;;5096591;28;20023;-59
2023/05/13 06:43:30;;;;;;;7.07;3.60;;;28.80;1.00;;;;;;5091762;28;20043;-60
2023/05/13 06:45:56;;;;;;;5.60;3.30;;;29.10;1.00;;;;;;5108437;28;20616;-59
2023/05/13 06:48:22;;;;;;;3.72;2.92;;;28.60;1.00;;;;;;5091657;28;20030;-61
2023/05/13 06:50:48;;;;;;;4.45;3.15;;;29.00;1.00;;;;;;5103809;28;20082;-60
2023/05/13 06:53:14;;;;;;;4.40;2.78;;;29.00;1.00;;;;;;5106664;28;20020;-60
2023/05/13 06:55:42;;;;;;;4.45;2.85;;;29.60;1.00;;;;;;5109472;28;20015;-60
2023/05/13 06:58:08;;;;;;;7.75;3.42;;;29.20;1.00;;;;;;5088831;28;20095;-60
2023/05/13 07:00:38;;;;;;;5.45;2.90;;;28.00;1.00;;;;;;5109355;28;20051;-60
2023/05/13 07:03:05;;;;;;;5.82;3.47;;;28.40;1.00;;;;;;5092686;28;20032;-59
2023/05/13 07:05:32;;;;;;;3.72;3.03;;;28.60;1.00;;;;;;5090951;28;20032;-60
2023/05/13 07:07:57;;;;;;;6.90;2.95;;;28.50;1.00;;;;;;5087521;28;20028;-58
2023/05/13 07:10:23;;;;;;;5.25;3.33;;;27.40;1.00;;;;;;5108939;28;20089;-60
2023/05/13 07:12:48;;;;;;;3.17;2.55;;;27.10;1.00;;;;;;5094880;28;20110;-59
2023/05/13 07:15:14;;;;;;;5.40;2.72;;;26.90;1.00;;;;;;5094580;28;20147;-59
2023/05/13 07:17:39;;;;;;;5.57;3.13;;;26.50;1.00;;;;;;5089957;28;20590;-60
2023/05/13 07:20:06;;;;;;;5.55;2.75;;;27.00;1.00;;;;;;5109638;28;20032;-59
2023/05/13 07:22:31;;;;;;;4.80;2.95;;;27.00;1.00;;;;;;5109389;28;20023;-59
2023/05/13 07:24:57;;;;;;;3.80;2.70;;;27.10;1.00;;;;;;5090858;28;20404;-59
2023/05/13 07:27:22;;;;;;;3.45;2.55;;;27.90;1.00;;;;;;5088742;28;20036;-60
2023/05/13 07:29:48;;;;;;;5.15;3.28;;;27.90;1.00;;;;;;5108736;28;20395;-60
2023/05/13 07:32:13;;;;;;;7.57;3.10;;;27.40;1.00;;;;;;5087802;28;20028;-60
2023/05/13 07:34:39;;;;;;;5.00;2.70;;;27.60;1.00;;;;;;5107781;28;20423;-60
2023/05/13 07:37:04;;;;;;;6.97;2.60;;;27.80;1.00;;;;;;5087829;28;20024;-59
2023/05/13 07:39:30;;;;;;;6.05;2.85;;;27.90;1.00;;;;;;5108817;28;20307;-60
2023/05/13 07:41:55;;;;;;;7.90;2.95;;;27.70;1.00;;;;;;5087681;28;20038;-60
2023/05/13 07:44:21;;;;;;;4.28;2.70;;;27.40;1.00;;;;;;5108553;28;20487;-60
2023/05/13 07:46:47;;;;;;;4.70;2.60;;;26.00;1.00;;;;;;5087746;28;20051;-60
2023/05/13 07:49:13;;;;;;;3.17;2.70;;;26.30;1.00;;;;;;5108627;28;20122;-60
2023/05/13 07:51:39;;;;;;;6.45;2.80;;;26.40;1.00;;;;;;5087628;28;20540;-59
2023/05/13 07:54:04;;;;;;;4.18;2.85;;;26.50;1.00;;;;;;5108591;28;20032;-60
2023/05/13 07:56:30;;;;;;;2.85;2.53;;;26.80;1.00;;;;;;5087595;28;20028;-60
2023/05/13 07:58:56;;;;;;;10.20;2.63;;;27.00;1.00;;;;;;5108612;28;20039;-60
2023/05/13 08:01:22;;;;;;;3.30;2.42;;;25.30;1.00;;;;;;5096687;28;20032;-60
2023/05/13 08:03:47;;;;;;;6.95;2.88;;;24.70;1.00;;;;;;5089298;28;20035;-60
2023/05/13 08:06:13;;;;;;;5.28;2.53;;;24.60;1.00;;;;;;5101947;28;20029;-60
2023/05/13 08:08:38;;;;;;;3.22;2.78;;;24.40;1.00;;;;;;5089333;28;20115;-60
2023/05/13 08:11:04;;;;;;;6.57;2.80;;;24.30;1.00;;;;;;5106286;28;20032;-60
2023/05/13 08:13:29;;;;;;;4.40;2.38;;;23.50;1.00;;;;;;5089197;28;20487;-60
2023/05/13 08:15:55;;;;;;;6.68;2.70;;;23.40;1.00;;;;;;5104997;28;20115;-60
2023/05/13 08:18:20;;;;;;;6.07;2.53;;;23.50;1.00;;;;;;5109079;28;20503;-60
2023/05/13 08:20:46;;;;;;;7.80;3.03;;;23.30;1.00;;;;;;5091378;28;20102;-60
2023/05/13 08:23:11;;;;;;;7.97;2.50;;;23.50;1.00;;;;;;5108975;28;20031;-60
2023/05/13 08:25:37;;;;;;;6.10;2.70;;;23.50;1.00;;;;;;5089562;28;20036;-60
2023/05/13 08:28:02;;;;;;;5.72;2.30;;;23.20;1.00;;;;;;5088656;28;20701;-59
2023/05/13 08:30:28;;;;;;;4.07;2.42;;;23.20;1.00;;;;;;5106276;28;20487;-60
2023/05/13 08:32:53;;;;;;;3.17;2.33;;;23.70;1.00;;;;;;5107898;28;20028;-60
2023/05/13 08:35:19;;;;;;;3.72;2.30;;;23.20;1.00;;;;;;5089040;28;20043;-60
2023/05/13 08:37:44;;;;;;;4.05;2.13;;;23.60;1.00;;;;;;5108854;28;20020;-60
2023/05/13 08:40:10;;;;;;;4.45;2.40;;;24.00;1.00;;;;;;5087513;28;20479;-59
2023/05/13 08:42:44;;;;;;;4.43;2.63;;;23.60;1.00;;;;;;5109048;28;20222;-60
2023/05/13 08:45:10;;;;;;;5.13;2.60;;;23.60;1.00;;;;;;5068127;28;20068;-59
2023/05/13 08:47:39;;;;;;;4.45;2.40;;;23.40;1.00;;;;;;5112752;28;20102;-59
2023/05/13 08:50:06;;;;;;;7.20;2.40;;;23.00;1.00;;;;;;5091202;28;20027;-59
2023/05/13 08:52:32;;;;;;;3.25;2.60;;;22.50;1.00;;;;;;5092295;28;20472;-60
2023/05/13 08:54:59;;;;;;;2.30;2.08;;;22.90;1.00;;;;;;5111875;28;20249;-60
2023/05/13 08:57:25;;;;;;;3.92;2.60;;;23.20;1.00;;;;;;5090798;28;20263;-60
2023/05/13 08:59:51;;;;;;;5.80;2.55;;;23.20;1.00;;;;;;5111816;28;20096;-60
2023/05/13 09:02:17;;;;;;;3.83;2.33;;;23.10;1.00;;;;;;5090827;28;20499;-60
2023/05/13 09:04:45;;;;;;;8.60;2.88;;;22.60;1.00;;;;;;5105647;28;20028;-59
2023/05/13 09:07:11;;;;;;;3.72;2.53;;;22.30;1.00;;;;;;5090047;28;20035;-59
2023/05/13 09:09:36;;;;;;;4.78;2.53;;;22.30;1.00;;;;;;5111593;28;20024;-59
2023/05/13 09:12:03;;;;;;;4.63;2.60;;;22.30;1.00;;;;;;5090558;28;20363;-59
2023/05/13 09:14:32;;;;;;;6.63;2.92;;;22.70;1.00;;;;;;5111663;28;20101;-59
2023/05/13 09:16:59;;;;;;;6.93;2.90;;;22.50;1.00;;;;;;5089976;28;20025;-59
2023/05/13 09:19:25;;;;;;;2.35;2.00;;;22.50;1.00;;;;;;5111573;28;20019;-59
2023/05/13 09:21:52;;;;;;;6.75;2.83;;;22.80;1.00;;;;;;5090267;28;20039;-59
2023/05/13 09:24:19;;;;;;;5.30;2.10;;;23.10;1.00;;;;;;5111643;28;20039;-59
2023/05/13 09:26:46;;;;;;;8.63;2.50;;;23.30;1.00;;;;;;5088536;28;20453;-59
2023/05/13 09:29:16;;;;;;;3.65;2.63;;;22.70;1.00;;;;;;5111460;28;20035;-59
2023/05/13 09:31:43;;;;;;;4.13;2.20;;;22.70;1.00;;;;;;5089975;28;20495;-59
2023/05/13 09:34:09;;;;;;;4.60;2.30;;;22.70;1.00;;;;;;5111273;28;20464;-59
2023/05/13 09:36:34;;;;;;;7.90;2.33;;;22.40;1.00;;;;;;5088712;28;20024;-60
2023/05/13 09:39:02;;;;;;;4.57;2.55;;;22.40;1.00;;;;;;5111143;28;20055;-59
2023/05/13 09:41:29;;;;;;;4.80;2.78;;;21.90;1.00;;;;;;5100841;28;20032;-59
2023/05/13 09:43:56;;;;;;;5.32;2.30;;;21.60;1.00;;;;;;5090149;28;20060;-60
2023/05/13 09:46:21;;;;;;;9.80;2.78;;;21.90;1.00;;;;;;5107377;28;20122;-59
2023/05/13 09:48:47;;;;;;;4.82;1.98;;;22.00;1.00;;;;;;5091526;28;20099;-59
2023/05/13 09:51:14;;;;;;;5.18;2.20;;;22.10;1.00;;;;;;5108669;28;20024;-59
2023/05/13 09:53:40;;;;;;;4.90;2.40;;;22.20;1.00;;;;;;5091280;28;20032;-59
2023/05/13 09:56:09;;;;;;;9.52;2.70;;;22.30;1.00;;;;;;5108233;28;20035;-60
2023/05/13 09:58:34;;;;;;;3.13;2.08;;;22.00;1.00;;;;;;5090736;28;20601;-60
2023/05/13 10:01:01;;;;;;;7.93;2.30;;;21.90;1.00;;;;;;5108558;28;20032;-59
2023/05/13 10:03:28;;;;;;;4.30;2.50;;;21.90;1.00;;;;;;5111276;28;20012;-60
2023/05/13 10:05:54;;;;;;;3.15;2.38;;;21.60;1.00;;;;;;5088850;28;20059;-60
2023/05/13 10:08:21;;;;;;;4.05;2.17;;;21.60;1.00;;;;;;5111040;28;20062;-59
2023/05/13 10:10:48;;;;;;;4.57;2.15;;;21.40;1.00;;;;;;5094657;28;20042;-59
2023/05/13 10:13:16;;;;;;;2.10;1.77;;;21.40;1.00;;;;;;5111016;28;20168;-59
2023/05/13 10:15:49;;;;;;;4.55;2.22;;;21.30;1.00;;;;;;5093885;27;20056;-58
2023/05/13 10:18:16;;;;;;;8.35;2.33;;;21.40;1.00;;;;;;5111044;28;20016;-65
2023/05/13 10:20:42;;;;;;;2.83;2.10;;;21.40;1.00;;;;;;5093860;28;20328;-56
2023/05/13 10:23:09;;;;;;;5.85;2.08;;;21.50;1.00;;;;;;5110918;28;20026;-59
2023/05/13 10:25:35;;;;;;;3.65;2.35;;;21.50;1.00;;;;;;5091038;28;20040;-59
2023/05/13 10:28:02;;;;;;;4.95;2.13;;;21.40;1.00;;;;;;5090440;28;20028;-59
2023/05/13 10:30:30;;;;;;;7.18;2.13;;;21.30;1.00;;;;;;5108243;28;20028;-59
2023/05/13 10:32:56;;;;;;;4.97;2.30;;;21.30;1.00;;;;;;5110702;28;20020;-59
2023/05/13 10:35:24;;;;;;;3.72;2.38;;;21.20;1.00;;;;;;5090876;28;20040;-59
2023/05/13 10:38:30;;;;;;;7.57;2.40;;;21.20;1.00;;;;;;5110545;28;20024;-59
2023/05/13 10:41:10;;;;;;;3.83;2.10;;;21.20;1.00;;;;;;5067914;28;20072;-59
2023/05/13 10:43:36;;;;;;;3.58;2.08;;;21.20;1.00;;;;;;5069699;28;20024;-59
2023/05/13 10:46:11;;;;;;;5.63;2.80;;;21.20;1.00;;;;;;5107183;28;20027;-59
2023/05/13 10:48:48;;;;;;;6.25;2.83;;;21.10;1.00;;;;;;5069769;28;20044;-59
2023/05/13 10:51:15;;;;;;;5.72;2.20;;;21.10;1.00;;;;;;5086669;28;20285;-59
2023/05/13 10:53:50;;;;;;;2.30;2.00;;;21.00;1.00;;;;;;5090256;28;20035;-59
2023/05/13 10:56:23;;;;;;;4.78;2.10;;;21.10;1.00;;;;;;5087079;28;20499;-59
2023/05/13 10:59:05;;;;;;;5.00;1.90;;;21.20;1.00;;;;;;5069515;28;20029;-59
2023/05/13 11:01:42;;;;;;;6.60;2.13;;;21.40;1.00;;;;;;5098113;28;20530;-60
2023/05/13 11:04:12;;;;;;;3.60;2.10;;;21.40;1.00;;;;;;5069326;28;20098;-59
2023/05/13 11:06:40;;;;;;;6.57;2.55;;;21.40;1.00;;;;;;5077603;28;20036;-59
2023/05/13 11:09:07;;;;;;;10.88;2.80;;;21.40;1.00;;;;;;5109288;28;20023;-58
2023/05/13 11:11:34;;;;;;;2.45;2.00;;;21.30;1.00;;;;;;5088118;28;20031;-59
2023/05/13 11:14:13;;;;;;;4.30;2.08;;;21.10;1.00;;;;;;5107950;28;20063;-58
2023/05/13 11:16:50;;;;;;;11.32;2.38;;;21.00;1.00;;;;;;5080422;28;20054;-60
2023/05/13 11:19:30;;;;;;;8.40;2.25;;;21.10;1.00;;;;;;5069157;28;20438;-60
2023/05/13 11:22:10;;;;;;;4.18;2.38;;;21.20;1.00;;;;;;5082578;28;20390;-59
2023/05/13 11:24:35;;;;;;;3.38;2.08;;;21.30;1.00;;;;;;5068880;28;20183;-60
2023/05/13 11:27:18;;;;;;;3.70;2.42;;;21.20;1.00;;;;;;5090250;28;20123;-58
2023/05/13 11:29:51;;;;;;;3.58;2.25;;;21.10;1.00;;;;;;5109036;28;20110;-59
2023/05/13 11:32:57;;;;;;;5.63;2.40;;;21.20;1.00;;;;;;5087603;28;20024;-59
2023/05/13 11:35:32;;;;;;;4.10;2.30;;;21.30;1.00;;;;;;5072130;28;20496;-60
2023/05/13 11:38:02;;;;;;;4.80;1.90;;;21.50;1.00;;;;;;5109668;28;20280;-59
2023/05/13 11:40:33;;;;;;;5.10;2.22;;;21.50;1.00;;;;;;5090462;28;20016;-58
2023/05/13 11:43:00;;;;;;;3.72;2.15;;;21.50;1.00;;;;;;5109347;28;20384;-58
2023/05/13 11:45:27;;;;;;;3.88;1.95;;;21.40;1.00;;;;;;5089873;28;20071;-59
2023/05/13 11:47:53;;;;;;;4.43;2.13;;;21.40;1.00;;;;;;5108072;28;20028;-59
2023/05/13 11:50:19;;;;;;;6.32;2.22;;;21.50;1.00;;;;;;5089445;28;20028;-59
2023/05/13 11:52:56;;;;;;;4.43;2.10;;;21.60;1.00;;;;;;5109291;28;20073;-60
2023/05/13 11:55:34;;;;;;;4.18;2.10;;;21.60;1.00;;;;;;5071305;28;20379;-60
2023/05/13 11:58:00;;;;;;;4.28;2.53;;;21.50;1.00;;;;;;5109513;28;20160;-60
2023/05/13 12:00:31;;;;;;;4.70;2.38;;;21.50;1.00;;;;;;5090235;28;20040;-60
2023/05/13 12:02:57;;;;;;;4.28;2.25;;;21.50;1.00;;;;;;5107780;28;20609;-60
2023/05/13 12:05:23;;;;;;;4.43;2.03;;;21.60;1.00;;;;;;5087730;28;20032;-60
2023/05/13 12:07:49;;;;;;;9.13;2.33;;;21.60;1.00;;;;;;5108458;28;20053;-59
2023/05/13 12:10:15;;;;;;;10.15;2.67;;;21.50;1.00;;;;;;5086982;28;20032;-59
2023/05/13 12:12:43;;;;;;;8.77;2.45;;;21.50;1.00;;;;;;5107792;28;20019;-59
2023/05/13 12:15:14;;;;;;;4.43;2.13;;;21.10;1.00;;;;;;5087200;28;20032;-59
2023/05/13 12:17:41;;;;;;;6.15;2.33;;;21.20;1.00;;;;;;5109057;28;20024;-60
2023/05/13 12:20:16;;;;;;;5.70;2.33;;;21.20;1.00;;;;;;5088591;28;20456;-58
2023/05/13 12:22:41;;;;;;;8.45;2.10;;;21.40;1.00;;;;;;5113273;28;20047;-59
2023/05/13 12:25:34;;;;;;;7.03;2.55;;;21.30;1.00;;;;;;5093413;28;20079;-58
2023/05/13 12:28:19;;;;;;;5.80;2.22;;;21.20;1.00;;;;;;5092812;28;20103;-59
2023/05/13 12:31:04;;;;;;;4.72;2.63;;;21.20;1.00;;;;;;5110328;28;20030;-59
2023/05/13 12:33:32;;;;;;;3.60;2.20;;;21.50;1.00;;;;;;5113120;28;20019;-59
2023/05/13 12:36:18;;;;;;;10.60;2.45;;;21.60;1.00;;;;;;5096904;28;20036;-60
2023/05/13 12:39:00;;;;;;;5.15;1.90;;;21.40;1.00;;;;;;5092669;28;20028;-60
2023/05/13 12:41:34;;;;;;;4.70;2.65;;;21.20;1.00;;;;;;5110822;28;20028;-60
2023/05/13 12:44:00;;;;;;;8.05;2.60;;;21.10;1.00;;;;;;5072240;28;20036;-59
2023/05/13 12:46:26;;;;;;;4.50;2.05;;;21.10;1.00;;;;;;5109541;28;20044;-60
2023/05/13 12:48:55;;;;;;;5.03;2.33;;;21.10;1.00;;;;;;5092704;28;20103;-60
2023/05/13 12:51:20;;;;;;;4.32;2.35;;;21.20;1.00;;;;;;5110302;28;20047;-60
2023/05/13 12:53:46;;;;;;;4.72;2.42;;;21.30;1.00;;;;;;5092534;28;20507;-60
2023/05/13 12:56:12;;;;;;;7.35;2.63;;;21.20;1.00;;;;;;5109728;28;20114;-60